Time;durP1;ratioP1;P1;durP2;ratioP2;P2;SDS_P1;SDS_P2;PMS_P1;PMS_P2;Temp;Humidity;BMP_temperature;BMP_pressure;BME280_temperature;BME280_humidity;BME280_pressure;Samples;Min_cycle;Max_cycle;Signal;HPM_P1;HPM_P2
2021/11/23 00:00:15;;;;;;;0.47;0.43;;;1.40;91.40;;;;;;4895792;29;20051;-77
2021/11/23 00:02:41;;;;;;;0.40;0.40;;;1.50;91.40;;;;;;4895764;29;20040;-77
2021/11/23 00:05:08;;;;;;;0.28;0.28;;;1.50;91.40;;;;;;4892791;29;20057;-77
2021/11/23 00:07:35;;;;;;;0.82;0.45;;;1.50;91.40;;;;;;4879179;29;20388;-76
2021/11/23 00:10:00;;;;;;;1.52;0.60;;;1.50;91.40;;;;;;4896088;29;20033;-76
2021/11/23 00:12:26;;;;;;;0.73;0.50;;;1.50;91.40;;;;;;4878385;29;20478;-77
2021/11/23 00:14:52;;;;;;;1.98;0.60;;;1.50;91.40;;;;;;4893378;29;20076;-77
2021/11/23 00:17:18;;;;;;;0.40;0.40;;;1.50;91.40;;;;;;4897932;29;20109;-77
2021/11/23 00:19:44;;;;;;;0.93;0.40;;;1.40;91.40;;;;;;4896237;29;20494;-75
2021/11/23 00:22:10;;;;;;;0.50;0.50;;;1.50;91.40;;;;;;4898724;29;20115;-77
2021/11/23 00:24:37;;;;;;;0.40;0.40;;;1.50;91.40;;;;;;4898237;29;20029;-76
2021/11/23 00:27:03;;;;;;;0.25;0.25;;;1.50;91.40;;;;;;4894233;29;20634;-76
2021/11/23 00:29:29;;;;;;;0.98;0.57;;;1.50;91.40;;;;;;4880198;29;20033;-75
2021/11/23 00:31:55;;;;;;;0.93;0.50;;;1.50;91.40;;;;;;4879981;29;20049;-76
2021/11/23 00:34:21;;;;;;;0.88;0.60;;;1.50;91.40;;;;;;4879867;29;20124;-75
2021/11/23 00:36:46;;;;;;;1.13;0.70;;;1.50;91.40;;;;;;4879765;29;20485;-76
2021/11/23 00:39:14;;;;;;;0.32;0.32;;;1.60;91.40;;;;;;4879676;29;20373;-75
2021/11/23 00:41:47;;;;;;;0.60;0.50;;;1.50;91.40;;;;;;4893817;29;20068;-75
2021/11/23 00:44:17;;;;;;;1.27;0.55;;;1.50;91.40;;;;;;4896682;29;20047;-75
2021/11/23 00:46:43;;;;;;;0.85;0.50;;;1.60;91.40;;;;;;4881188;29;20059;-75
2021/11/23 00:49:11;;;;;;;0.32;0.30;;;1.70;91.40;;;;;;4898265;29;20096;-75
2021/11/23 00:51:37;;;;;;;0.40;0.30;;;1.70;91.40;;;;;;4880401;29;20068;-76
2021/11/23 00:54:03;;;;;;;0.47;0.43;;;1.70;91.30;;;;;;4898512;29;20115;-78
2021/11/23 00:56:29;;;;;;;0.57;0.50;;;1.80;91.30;;;;;;4882104;29;20045;-77
2021/11/23 00:58:55;;;;;;;0.73;0.63;;;1.90;91.30;;;;;;4898542;29;20127;-75
2021/11/23 01:01:21;;;;;;;0.73;0.50;;;1.90;91.20;;;;;;4893831;29;20072;-75
2021/11/23 01:03:47;;;;;;;0.45;0.45;;;2.00;91.20;;;;;;4894551;29;20141;-76
2021/11/23 01:06:14;;;;;;;0.70;0.47;;;2.00;91.10;;;;;;4896844;29;20107;-76
2021/11/23 01:08:40;;;;;;;0.50;0.30;;;2.10;91.10;;;;;;4880810;29;20045;-75
2021/11/23 01:11:09;;;;;;;1.23;0.70;;;2.10;91.10;;;;;;4896300;29;20044;-75
2021/11/23 01:13:36;;;;;;;1.00;0.70;;;2.10;91.10;;;;;;4896021;29;20053;-75
2021/11/23 01:16:02;;;;;;;1.20;0.60;;;2.20;91.10;;;;;;4898199;29;20036;-75
2021/11/23 01:18:28;;;;;;;1.85;0.40;;;2.30;91.10;;;;;;4898221;29;20131;-76
2021/11/23 01:20:54;;;;;;;0.73;0.47;;;2.30;91.00;;;;;;4880731;29;20093;-76
2021/11/23 01:23:20;;;;;;;1.38;0.70;;;2.40;91.00;;;;;;4896023;29;20108;-76
2021/11/23 01:25:47;;;;;;;0.90;0.68;;;2.40;91.00;;;;;;4895279;29;20484;-76
2021/11/23 01:28:14;;;;;;;0.80;0.50;;;2.40;91.00;;;;;;4898339;29;20092;-76
2021/11/23 01:30:40;;;;;;;0.73;0.60;;;2.50;91.00;;;;;;4897757;29;20040;-75
2021/11/23 01:33:06;;;;;;;1.63;0.70;;;2.50;91.00;;;;;;4895496;29;20433;-75
2021/11/23 01:35:31;;;;;;;0.63;0.50;;;2.60;91.00;;;;;;4895222;29;20473;-76
2021/11/23 01:37:57;;;;;;;1.30;0.80;;;2.60;90.90;;;;;;4896741;29;20072;-76
2021/11/23 01:40:23;;;;;;;3.17;0.50;;;2.60;90.90;;;;;;4896491;29;20071;-76
2021/11/23 01:42:49;;;;;;;0.63;0.50;;;2.60;90.90;;;;;;4898528;29;20467;-77
2021/11/23 01:45:16;;;;;;;0.75;0.50;;;2.70;90.90;;;;;;4896857;29;20041;-76
2021/11/23 01:47:42;;;;;;;0.63;0.47;;;2.70;90.90;;;;;;4881338;29;20127;-76
2021/11/23 01:50:10;;;;;;;1.05;0.60;;;2.70;90.90;;;;;;4899743;29;20032;-75
2021/11/23 01:52:36;;;;;;;0.57;0.52;;;2.70;90.90;;;;;;4899052;29;20056;-75
2021/11/23 01:55:06;;;;;;;0.68;0.50;;;2.80;90.90;;;;;;4901125;29;20108;-76
2021/11/23 01:57:32;;;;;;;0.65;0.32;;;2.80;90.90;;;;;;4884034;29;20407;-76
2021/11/23 02:00:00;;;;;;;0.85;0.45;;;2.90;90.90;;;;;;4901650;29;20092;-75
2021/11/23 02:02:26;;;;;;;0.68;0.50;;;2.90;90.90;;;;;;4899537;29;20116;-76
2021/11/23 02:04:52;;;;;;;1.02;0.63;;;3.00;90.90;;;;;;4900068;29;20063;-76
2021/11/23 02:07:18;;;;;;;1.58;0.68;;;3.00;90.90;;;;;;4907121;29;20044;-77
2021/11/23 02:09:45;;;;;;;1.77;0.65;;;2.90;90.80;;;;;;4906374;29;20092;-77
2021/11/23 02:12:11;;;;;;;0.55;0.50;;;3.10;90.90;;;;;;4906373;29;20037;-78
2021/11/23 02:14:38;;;;;;;1.33;0.90;;;3.20;90.90;;;;;;4907581;29;20028;-77
2021/11/23 02:17:05;;;;;;;0.90;0.60;;;3.10;90.90;;;;;;4905728;29;20052;-77
2021/11/23 02:19:30;;;;;;;1.13;0.68;;;3.20;90.90;;;;;;4906141;29;20044;-77
2021/11/23 02:21:56;;;;;;;1.67;0.90;;;3.20;90.90;;;;;;4891076;29;20084;-77
2021/11/23 02:24:22;;;;;;;1.30;0.75;;;3.20;90.90;;;;;;4907999;29;20052;-77
2021/11/23 02:26:48;;;;;;;0.40;0.40;;;3.20;90.90;;;;;;4907991;29;20475;-77
2021/11/23 02:29:14;;;;;;;1.60;0.70;;;3.30;90.90;;;;;;4907560;29;20096;-77
2021/11/23 02:31:39;;;;;;;0.88;0.50;;;3.30;90.90;;;;;;4908514;29;20033;-78
2021/11/23 02:34:05;;;;;;;0.98;0.65;;;3.30;90.90;;;;;;4906172;29;20547;-78
2021/11/23 02:36:33;;;;;;;1.40;0.65;;;3.30;90.90;;;;;;4905546;29;20043;-78
2021/11/23 02:38:59;;;;;;;1.70;0.73;;;3.40;90.90;;;;;;4907583;29;20033;-78
2021/11/23 02:41:24;;;;;;;1.13;0.70;;;3.30;90.90;;;;;;4904896;29;20037;-78
2021/11/23 02:43:50;;;;;;;1.10;0.80;;;3.40;90.90;;;;;;4905549;29;20090;-78
2021/11/23 02:46:16;;;;;;;0.68;0.55;;;3.30;90.90;;;;;;4906406;29;20108;-78
2021/11/23 02:48:42;;;;;;;0.88;0.50;;;3.40;90.90;;;;;;4908577;29;20045;-78
2021/11/23 02:51:14;;;;;;;0.90;0.70;;;3.50;91.00;;;;;;4902905;29;20086;-77
2021/11/23 02:53:41;;;;;;;0.88;0.57;;;3.40;90.90;;;;;;4904454;29;20097;-77
2021/11/23 02:56:07;;;;;;;0.63;0.60;;;3.40;90.90;;;;;;4905069;29;20120;-77
2021/11/23 02:58:33;;;;;;;0.40;0.38;;;3.50;91.00;;;;;;4887039;29;20048;-77
2021/11/23 03:01:04;;;;;;;0.35;0.35;;;3.50;91.00;;;;;;4904941;29;20057;-77
2021/11/23 03:03:30;;;;;;;0.95;0.60;;;3.50;91.00;;;;;;4904213;29;20115;-78
2021/11/23 03:05:56;;;;;;;0.88;0.40;;;3.50;91.00;;;;;;4901341;29;20141;-78
2021/11/23 03:08:22;;;;;;;1.13;0.50;;;3.50;91.00;;;;;;4904138;29;20045;-78
2021/11/23 03:10:48;;;;;;;0.88;0.40;;;3.60;91.00;;;;;;4886716;29;20048;-77
2021/11/23 03:13:14;;;;;;;0.75;0.47;;;3.60;91.00;;;;;;4906079;29;20036;-77
2021/11/23 03:15:40;;;;;;;0.32;0.32;;;3.60;91.00;;;;;;4905824;29;20037;-77
2021/11/23 03:18:09;;;;;;;0.52;0.50;;;3.60;91.00;;;;;;4902864;29;20048;-77
2021/11/23 03:20:36;;;;;;;0.60;0.50;;;3.60;91.00;;;;;;4905859;29;20056;-77
2021/11/23 03:23:04;;;;;;;0.75;0.52;;;3.70;91.00;;;;;;4887567;29;20053;-77
2021/11/23 03:25:30;;;;;;;0.77;0.60;;;3.70;91.00;;;;;;4903832;29;20109;-77
2021/11/23 03:27:56;;;;;;;1.52;0.50;;;3.70;91.00;;;;;;4906083;29;20112;-77
2021/11/23 03:30:26;;;;;;;0.65;0.60;;;3.80;91.00;;;;;;4903177;29;20064;-77
2021/11/23 03:32:54;;;;;;;0.32;0.30;;;3.70;91.00;;;;;;4904495;29;20452;-77
2021/11/23 03:35:21;;;;;;;1.05;0.70;;;3.80;91.00;;;;;;4887083;29;20029;-77
2021/11/23 03:37:47;;;;;;;0.85;0.63;;;3.80;91.00;;;;;;4901976;29;20392;-77
2021/11/23 03:40:14;;;;;;;0.57;0.47;;;3.80;91.00;;;;;;4904749;29;20035;-77
2021/11/23 03:42:40;;;;;;;0.65;0.47;;;3.80;91.00;;;;;;4904233;29;20048;-77
2021/11/23 03:45:06;;;;;;;1.67;0.80;;;3.80;91.00;;;;;;4886556;29;20436;-77
2021/11/23 03:47:34;;;;;;;0.77;0.50;;;3.90;91.00;;;;;;4898115;29;20036;-76
2021/11/23 03:50:00;;;;;;;0.63;0.40;;;3.90;91.00;;;;;;4897037;29;20511;-76
2021/11/23 03:52:27;;;;;;;0.30;0.28;;;3.90;91.00;;;;;;4903111;29;20096;-76
2021/11/23 03:54:53;;;;;;;0.75;0.40;;;3.90;91.00;;;;;;4902790;29;20096;-76
2021/11/23 03:57:19;;;;;;;1.00;0.40;;;4.00;91.00;;;;;;4902452;29;20100;-76
2021/11/23 03:59:48;;;;;;;1.05;0.57;;;3.90;91.00;;;;;;4902460;29;20041;-76
2021/11/23 04:02:17;;;;;;;0.35;0.35;;;4.00;91.00;;;;;;4901371;29;20043;-75
2021/11/23 04:04:43;;;;;;;0.85;0.45;;;4.00;91.00;;;;;;4900380;29;20032;-75
2021/11/23 04:07:09;;;;;;;1.23;0.50;;;4.00;91.00;;;;;;4902072;29;19932;-76
2021/11/23 04:09:35;;;;;;;0.20;0.20;;;4.00;91.00;;;;;;4900044;29;20036;-76
2021/11/23 04:12:01;;;;;;;0.55;0.30;;;4.00;91.00;;;;;;4883430;29;20065;-76
2021/11/23 04:14:27;;;;;;;0.43;0.40;;;4.10;91.10;;;;;;4899920;29;20400;-75
2021/11/23 04:16:53;;;;;;;0.45;0.30;;;4.10;91.10;;;;;;4899509;29;20488;-76
2021/11/23 04:19:18;;;;;;;0.65;0.50;;;4.10;91.10;;;;;;4901535;29;20099;-76
2021/11/23 04:21:44;;;;;;;0.75;0.57;;;4.10;91.10;;;;;;4899870;29;20040;-76
2021/11/23 04:24:10;;;;;;;1.35;0.50;;;4.10;91.10;;;;;;4899709;29;20069;-76
2021/11/23 04:26:35;;;;;;;0.80;0.65;;;4.10;91.10;;;;;;4899231;29;20503;-75
2021/11/23 04:29:02;;;;;;;0.38;0.38;;;4.20;91.10;;;;;;4900387;29;20052;-75
2021/11/23 04:31:27;;;;;;;0.50;0.50;;;4.20;91.10;;;;;;4901425;29;20429;-76
2021/11/23 04:33:53;;;;;;;0.90;0.40;;;4.20;91.00;;;;;;4900692;29;20044;-76
2021/11/23 04:36:19;;;;;;;0.90;0.50;;;4.30;91.10;;;;;;4900857;29;20043;-75
2021/11/23 04:38:45;;;;;;;0.43;0.38;;;4.40;91.10;;;;;;4899141;29;20399;-76
2021/11/23 04:41:11;;;;;;;0.35;0.35;;;4.40;91.10;;;;;;4900529;29;20037;-75
2021/11/23 04:43:36;;;;;;;0.82;0.40;;;4.40;91.10;;;;;;4900860;29;20132;-76
2021/11/23 04:46:02;;;;;;;0.85;0.40;;;4.40;91.00;;;;;;4899955;29;20083;-76
2021/11/23 04:48:28;;;;;;;0.70;0.50;;;4.40;91.00;;;;;;4898231;29;20051;-76
2021/11/23 04:50:55;;;;;;;0.93;0.30;;;4.50;91.10;;;;;;4899115;29;20040;-76
2021/11/23 04:53:22;;;;;;;0.52;0.43;;;4.50;91.00;;;;;;4901017;29;20052;-77
2021/11/23 04:55:48;;;;;;;1.02;0.50;;;4.50;91.00;;;;;;4900539;29;20092;-76
2021/11/23 04:58:14;;;;;;;0.50;0.40;;;4.50;91.00;;;;;;4884072;29;20565;-75
2021/11/23 05:00:40;;;;;;;0.95;0.50;;;4.50;91.00;;;;;;4883832;29;20048;-75
2021/11/23 05:03:06;;;;;;;1.83;0.60;;;4.60;91.10;;;;;;4900143;29;20504;-75
2021/11/23 05:05:31;;;;;;;0.35;0.30;;;4.60;91.00;;;;;;4900266;29;20112;-75
2021/11/23 05:07:57;;;;;;;0.82;0.30;;;4.60;91.00;;;;;;4900644;29;20032;-75
2021/11/23 05:10:23;;;;;;;0.70;0.40;;;4.70;91.10;;;;;;4900022;29;20044;-76
2021/11/23 05:12:48;;;;;;;0.30;0.30;;;4.70;91.10;;;;;;4900746;29;20375;-76
2021/11/23 05:15:14;;;;;;;0.40;0.35;;;4.70;91.10;;;;;;4898891;29;20484;-75
2021/11/23 05:17:40;;;;;;;0.95;0.30;;;4.70;91.10;;;;;;4901377;29;20041;-76
2021/11/23 05:20:07;;;;;;;0.82;0.50;;;4.70;91.10;;;;;;4899564;29;20083;-76
2021/11/23 05:22:33;;;;;;;0.30;0.30;;;4.70;91.10;;;;;;4899112;29;20471;-76
2021/11/23 05:24:59;;;;;;;0.55;0.40;;;4.70;91.00;;;;;;4882168;29;20041;-76
2021/11/23 05:27:24;;;;;;;0.50;0.35;;;4.80;91.10;;;;;;4901455;29;20116;-76
2021/11/23 05:29:50;;;;;;;0.30;0.30;;;4.80;91.10;;;;;;4884462;29;20036;-75
2021/11/23 05:32:16;;;;;;;0.68;0.47;;;4.80;91.10;;;;;;4902173;29;20037;-75
2021/11/23 05:34:41;;;;;;;0.63;0.30;;;4.80;91.10;;;;;;4898773;29;20045;-75
2021/11/23 05:37:07;;;;;;;0.85;0.32;;;4.90;91.10;;;;;;4883668;29;20051;-76
2021/11/23 05:39:33;;;;;;;1.42;0.50;;;4.90;91.10;;;;;;4901622;29;20053;-75
2021/11/23 05:41:58;;;;;;;0.80;0.52;;;4.90;91.10;;;;;;4904986;29;20044;-76
2021/11/23 05:44:24;;;;;;;0.45;0.40;;;5.00;91.10;;;;;;4903891;29;20052;-76
2021/11/23 05:46:50;;;;;;;0.80;0.60;;;4.90;91.10;;;;;;4903021;29;20420;-76
2021/11/23 05:49:17;;;;;;;0.32;0.32;;;5.10;91.10;;;;;;4903709;29;20436;-76
2021/11/23 05:51:43;;;;;;;0.80;0.40;;;5.00;91.10;;;;;;4904976;29;20368;-76
2021/11/23 05:54:09;;;;;;;0.30;0.30;;;5.10;91.10;;;;;;4905077;29;20523;-75
2021/11/23 05:56:35;;;;;;;0.95;0.45;;;5.10;91.10;;;;;;4904335;29;20044;-76
2021/11/23 05:59:02;;;;;;;1.95;0.63;;;5.10;91.10;;;;;;4901863;29;20037;-75
2021/11/23 06:01:28;;;;;;;0.43;0.35;;;5.20;91.10;;;;;;4900627;29;20053;-75
2021/11/23 06:03:53;;;;;;;0.30;0.30;;;5.30;91.10;;;;;;4913047;29;20038;-76
2021/11/23 06:06:19;;;;;;;0.50;0.43;;;5.20;91.10;;;;;;4919676;29;20043;-78
2021/11/23 06:08:45;;;;;;;1.27;0.40;;;5.20;91.10;;;;;;4920729;29;20495;-76
2021/11/23 06:11:10;;;;;;;0.55;0.35;;;5.20;91.10;;;;;;4919394;29;20028;-77
2021/11/23 06:13:37;;;;;;;0.63;0.43;;;5.30;91.20;;;;;;4918458;29;20116;-76
2021/11/23 06:16:05;;;;;;;0.90;0.60;;;5.30;91.20;;;;;;4920553;29;20546;-76
2021/11/23 06:18:31;;;;;;;1.48;0.50;;;5.20;91.20;;;;;;4920927;29;20056;-76
2021/11/23 06:20:56;;;;;;;0.82;0.60;;;5.30;91.20;;;;;;4917701;29;21109;-76
2021/11/23 06:23:24;;;;;;;0.50;0.32;;;5.30;91.20;;;;;;4920476;29;20068;-76
2021/11/23 06:25:52;;;;;;;0.70;0.45;;;5.30;91.20;;;;;;4918484;29;20061;-76
2021/11/23 06:28:20;;;;;;;2.45;0.65;;;5.30;91.20;;;;;;4920716;29;20048;-76
2021/11/23 06:30:46;;;;;;;0.52;0.32;;;5.30;91.20;;;;;;4916516;29;20061;-75
2021/11/23 06:33:12;;;;;;;0.73;0.45;;;5.40;91.20;;;;;;4903406;29;20056;-75
2021/11/23 06:35:38;;;;;;;0.60;0.60;;;5.40;91.30;;;;;;4918776;29;20061;-76
2021/11/23 06:38:06;;;;;;;0.50;0.50;;;5.40;91.30;;;;;;4917093;29;20048;-76
2021/11/23 06:40:32;;;;;;;0.38;0.38;;;5.40;91.30;;;;;;4919707;29;20072;-77
2021/11/23 06:42:59;;;;;;;1.73;0.50;;;5.40;91.30;;;;;;4918131;29;20013;-76
2021/11/23 06:45:26;;;;;;;0.63;0.45;;;5.40;91.30;;;;;;4919638;29;20076;-76
2021/11/23 06:47:51;;;;;;;0.45;0.30;;;5.40;91.30;;;;;;4918702;29;20116;-75
2021/11/23 06:50:17;;;;;;;0.40;0.40;;;5.40;91.30;;;;;;4917871;29;20052;-75
2021/11/23 06:52:43;;;;;;;0.77;0.43;;;5.40;91.30;;;;;;4918342;29;20053;-76
2021/11/23 06:55:10;;;;;;;0.52;0.50;;;5.40;91.40;;;;;;4916036;29;20029;-76
2021/11/23 06:57:35;;;;;;;0.50;0.30;;;5.40;91.40;;;;;;4915761;29;20037;-76
2021/11/23 07:00:04;;;;;;;0.38;0.38;;;5.50;91.40;;;;;;4912311;29;20061;-77
2021/11/23 07:02:30;;;;;;;0.90;0.65;;;5.50;91.40;;;;;;4897820;29;20060;-78
2021/11/23 07:04:55;;;;;;;0.35;0.35;;;5.40;91.40;;;;;;4916826;29;20049;-77
2021/11/23 07:07:21;;;;;;;0.90;0.50;;;5.50;91.40;;;;;;4887918;29;20044;-77
2021/11/23 07:09:47;;;;;;;0.52;0.30;;;5.50;91.50;;;;;;4913394;29;20071;-77
2021/11/23 07:12:13;;;;;;;0.40;0.40;;;5.40;91.50;;;;;;4915251;29;20041;-77
2021/11/23 07:14:39;;;;;;;0.57;0.50;;;5.40;91.50;;;;;;4913750;29;20036;-78
2021/11/23 07:17:06;;;;;;;1.08;0.50;;;5.40;91.50;;;;;;4898243;29;20113;-78
2021/11/23 07:19:32;;;;;;;2.55;0.70;;;5.40;91.60;;;;;;4915953;29;20048;-78
2021/11/23 07:21:57;;;;;;;0.50;0.50;;;5.40;91.60;;;;;;4915944;29;20092;-77
2021/11/23 07:24:23;;;;;;;0.40;0.40;;;5.30;91.60;;;;;;4914629;29;20069;-78
2021/11/23 07:26:49;;;;;;;0.63;0.50;;;5.30;91.70;;;;;;4898768;29;20061;-78
2021/11/23 07:29:15;;;;;;;0.30;0.30;;;5.40;91.80;;;;;;4914827;29;20814;-78
2021/11/23 07:31:41;;;;;;;0.85;0.30;;;5.30;91.80;;;;;;4916706;29;20480;-77
2021/11/23 07:34:07;;;;;;;0.20;0.20;;;5.30;91.80;;;;;;4899084;29;20029;-77
2021/11/23 07:36:34;;;;;;;0.98;0.30;;;5.30;91.80;;;;;;4917618;29;20101;-77
2021/11/23 07:39:01;;;;;;;0.20;0.20;;;5.20;91.80;;;;;;4917756;29;20077;-78
2021/11/23 07:41:27;;;;;;;0.65;0.35;;;5.20;91.90;;;;;;4916858;29;20522;-77
2021/11/23 07:43:55;;;;;;;0.68;0.50;;;5.30;91.90;;;;;;4914096;29;20021;-77
2021/11/23 07:46:21;;;;;;;0.35;0.20;;;5.30;91.90;;;;;;4913719;29;20097;-77
2021/11/23 07:48:47;;;;;;;0.50;0.50;;;5.40;91.90;;;;;;4912629;29;20044;-77
2021/11/23 07:51:13;;;;;;;0.55;0.52;;;5.50;91.90;;;;;;4908278;29;20063;-78
2021/11/23 07:53:39;;;;;;;0.45;0.40;;;5.50;91.80;;;;;;4899579;29;20048;-78
2021/11/23 07:56:06;;;;;;;0.45;0.40;;;5.50;91.80;;;;;;4896898;29;20127;-78
2021/11/23 07:58:32;;;;;;;1.55;0.50;;;5.50;91.80;;;;;;4894332;29;20120;-78
2021/11/23 08:00:58;;;;;;;1.15;0.75;;;5.50;91.80;;;;;;4894357;29;20459;-81
2021/11/23 08:07:32;;;;;;;0.52;0.50;;;5.70;91.70;;;;;;4818325;29;20057;-82
2021/11/23 08:10:00;;;;;;;1.20;0.80;;;5.70;91.70;;;;;;4779751;29;20042;-80
2021/11/23 08:12:41;;;;;;;1.52;0.70;;;5.70;91.70;;;;;;4786007;29;20133;-82
2021/11/23 08:15:25;;;;;;;0.90;0.80;;;5.90;91.70;;;;;;4799904;29;20043;-79
2021/11/23 08:17:51;;;;;;;1.20;0.90;;;5.80;91.60;;;;;;4814725;29;20141;-80
2021/11/23 08:20:18;;;;;;;0.85;0.60;;;5.80;91.60;;;;;;4787895;29;20048;-82
2021/11/23 08:22:53;;;;;;;1.52;0.77;;;5.80;91.60;;;;;;4786885;29;20106;-81
2021/11/23 08:25:22;;;;;;;0.95;0.73;;;5.90;91.60;;;;;;4783041;29;20052;-80
2021/11/23 08:27:49;;;;;;;1.30;0.90;;;5.90;91.60;;;;;;4783008;29;20040;-80
2021/11/23 08:38:03;;;;;;;0.43;0.40;;;6.00;91.60;;;;;;4747082;30;20133;-81
2021/11/23 08:40:45;;;;;;;0.70;0.67;;;6.00;91.50;;;;;;4750401;30;20063;-78
2021/11/23 08:43:23;;;;;;;0.68;0.50;;;6.00;91.50;;;;;;4748105;30;20051;-78
2021/11/23 08:50:12;;;;;;;0.77;0.60;;;6.10;91.60;;;;;;4712184;30;20114;-79
2021/11/23 08:52:44;;;;;;;1.02;0.55;;;6.20;91.60;;;;;;4714231;30;20048;-78
2021/11/23 08:55:10;;;;;;;0.57;0.55;;;6.20;91.60;;;;;;4694980;30;20449;-78
2021/11/23 08:57:37;;;;;;;0.40;0.40;;;6.20;91.60;;;;;;4683446;30;20539;-78
2021/11/23 09:02:49;;;;;;;0.70;0.50;;;6.30;91.70;;;;;;4697731;30;20409;-80
2021/11/23 09:05:22;;;;;;;0.82;0.60;;;6.30;91.70;;;;;;4654641;30;20153;-79
2021/11/23 09:08:13;;;;;;;0.50;0.50;;;6.30;91.70;;;;;;4676666;30;20101;-79
2021/11/23 09:10:40;;;;;;;0.80;0.70;;;6.40;91.80;;;;;;4662285;30;20097;-80
2021/11/23 09:13:17;;;;;;;0.88;0.60;;;6.40;91.70;;;;;;4662385;30;20054;-83
2021/11/23 09:15:43;;;;;;;1.58;0.80;;;6.50;91.70;;;;;;4633679;30;20086;-79
2021/11/23 09:18:09;;;;;;;0.85;0.70;;;6.50;91.70;;;;;;4647707;30;20486;-80
2021/11/23 09:20:38;;;;;;;0.73;0.63;;;6.60;91.70;;;;;;4664108;30;20129;-80
2021/11/23 09:23:11;;;;;;;0.65;0.50;;;6.70;91.70;;;;;;4667870;30;20046;-80
2021/11/23 09:25:53;;;;;;;0.63;0.60;;;6.70;91.70;;;;;;4704191;30;20043;-80
2021/11/23 09:28:35;;;;;;;1.02;0.50;;;6.80;91.70;;;;;;4731583;30;20101;-78
2021/11/23 09:31:01;;;;;;;1.55;0.90;;;6.90;91.60;;;;;;4748184;30;20167;-79
2021/11/23 09:33:38;;;;;;;0.90;0.60;;;7.10;91.60;;;;;;4749858;30;20139;-78
2021/11/23 09:39:14;;;;;;;0.98;0.80;;;7.20;91.40;;;;;;4707583;30;20107;-84
2021/11/23 09:41:49;;;;;;;1.00;0.70;;;7.30;91.40;;;;;;4705736;30;20532;-86
2021/11/23 09:44:15;;;;;;;2.20;0.85;;;7.40;91.40;;;;;;4696889;30;20104;-85
2021/11/23 09:46:43;;;;;;;0.40;0.40;;;7.40;91.40;;;;;;4768984;30;20063;-85
2021/11/23 09:49:09;;;;;;;1.10;0.77;;;7.50;91.40;;;;;;4784703;29;20043;-86
2021/11/23 09:51:36;;;;;;;1.98;0.90;;;7.50;91.40;;;;;;4789047;30;20071;-85
2021/11/23 09:54:05;;;;;;;0.75;0.68;;;7.60;91.40;;;;;;4785833;30;20529;-86
2021/11/23 09:56:32;;;;;;;1.52;0.80;;;7.60;91.40;;;;;;4785675;30;20051;-86
2021/11/23 09:58:58;;;;;;;2.38;0.85;;;7.70;91.40;;;;;;4785909;29;20051;-86
2021/11/23 10:01:27;;;;;;;0.95;0.65;;;7.80;91.50;;;;;;4785219;29;20122;-85
2021/11/23 10:03:54;;;;;;;2.70;0.90;;;7.80;91.40;;;;;;4771884;29;20040;-86
2021/11/23 10:06:24;;;;;;;0.90;0.80;;;7.80;91.40;;;;;;4767038;30;20048;-85
2021/11/23 10:08:53;;;;;;;1.23;0.77;;;7.90;91.40;;;;;;4780447;29;20055;-85
2021/11/23 10:11:35;;;;;;;1.92;1.00;;;8.00;91.40;;;;;;4824322;29;20083;-85
2021/11/23 10:14:04;;;;;;;1.98;1.10;;;8.10;91.50;;;;;;4842056;29;20054;-86
2021/11/23 10:16:47;;;;;;;1.23;0.75;;;8.10;91.40;;;;;;4876077;29;20053;-85
2021/11/23 10:19:15;;;;;;;1.27;0.90;;;8.10;91.40;;;;;;4876312;29;20858;-86
2021/11/23 10:21:52;;;;;;;2.22;1.20;;;8.10;91.40;;;;;;4876308;29;20602;-85
2021/11/23 10:24:22;;;;;;;1.70;1.13;;;8.30;91.50;;;;;;4876121;29;20125;-85
2021/11/23 10:26:49;;;;;;;2.53;1.00;;;8.30;91.40;;;;;;4861103;29;20049;-85
2021/11/23 10:29:16;;;;;;;2.42;0.90;;;8.20;91.40;;;;;;4876182;29;20052;-85
2021/11/23 10:31:44;;;;;;;1.15;0.73;;;8.30;91.50;;;;;;4877756;29;20044;-85
2021/11/23 10:34:13;;;;;;;3.15;1.00;;;8.20;91.50;;;;;;4863130;29;20037;-86
2021/11/23 10:36:41;;;;;;;2.20;0.77;;;8.40;91.60;;;;;;4863966;29;20181;-86
2021/11/23 10:39:12;;;;;;;1.23;0.90;;;8.30;91.60;;;;;;4878907;29;20096;-85
2021/11/23 10:41:39;;;;;;;1.00;0.80;;;8.40;91.60;;;;;;4895611;29;20033;-83
2021/11/23 10:44:29;;;;;;;1.05;0.88;;;8.40;91.50;;;;;;4891558;29;20416;-77
2021/11/23 10:46:58;;;;;;;1.63;0.82;;;8.60;91.60;;;;;;4885737;29;20491;-77
2021/11/23 10:49:29;;;;;;;1.05;0.60;;;8.60;91.60;;;;;;4878354;29;20128;-79
2021/11/23 10:55:31;;;;;;;1.30;0.70;;;8.60;91.60;;;;;;4890739;29;20082;-77
2021/11/23 10:58:00;;;;;;;0.40;0.40;;;8.70;91.60;;;;;;4878167;29;20029;-78
2021/11/23 11:00:29;;;;;;;0.68;0.55;;;8.70;91.70;;;;;;4895130;29;20036;-78
2021/11/23 11:03:00;;;;;;;0.63;0.45;;;8.80;91.70;;;;;;4877821;29;20398;-78
2021/11/23 11:05:28;;;;;;;2.03;0.70;;;8.80;91.70;;;;;;4877725;29;20053;-78
2021/11/23 11:07:57;;;;;;;1.25;0.85;;;8.90;91.70;;;;;;4896808;29;20096;-78
2021/11/23 11:10:24;;;;;;;0.90;0.80;;;8.90;91.70;;;;;;4894587;29;20037;-79
2021/11/23 11:12:51;;;;;;;1.50;0.85;;;9.20;91.70;;;;;;4875583;29;21208;-80
2021/11/23 11:15:21;;;;;;;1.30;0.85;;;9.10;91.60;;;;;;4880873;29;20550;-79
2021/11/23 11:17:47;;;;;;;1.25;0.70;;;9.10;91.60;;;;;;4883269;29;20060;-80
2021/11/23 11:20:32;;;;;;;1.77;0.63;;;9.20;91.80;;;;;;4902682;29;20041;-80
2021/11/23 11:23:05;;;;;;;0.95;0.70;;;9.30;91.60;;;;;;4900792;29;20488;-79
2021/11/23 11:25:55;;;;;;;0.98;0.70;;;9.30;91.50;;;;;;4882327;29;20488;-79
2021/11/23 11:28:53;;;;;;;1.33;0.80;;;9.50;91.50;;;;;;4889956;29;20029;-79
2021/11/23 11:31:39;;;;;;;2.65;0.90;;;9.50;91.50;;;;;;4890961;29;20044;-80
2021/11/23 11:34:26;;;;;;;0.98;0.75;;;9.60;91.50;;;;;;4884984;29;20128;-79
2021/11/23 11:37:16;;;;;;;2.30;1.10;;;9.70;91.50;;;;;;4909071;29;20033;-80
2021/11/23 11:39:44;;;;;;;0.95;0.82;;;9.70;91.40;;;;;;4872138;29;20053;-79
2021/11/23 11:42:31;;;;;;;0.93;0.82;;;9.70;91.40;;;;;;4901327;29;20056;-80
2021/11/23 11:44:58;;;;;;;1.00;0.70;;;9.70;91.40;;;;;;4901172;29;20400;-79
2021/11/23 11:47:33;;;;;;;1.52;1.00;;;9.90;91.40;;;;;;4893657;29;20053;-81
2021/11/23 11:50:03;;;;;;;0.77;0.57;;;10.00;91.40;;;;;;4891251;29;20067;-80
2021/11/23 11:52:33;;;;;;;1.25;0.63;;;10.00;91.30;;;;;;4905011;29;20049;-80
2021/11/23 11:55:16;;;;;;;0.98;0.70;;;10.10;91.40;;;;;;4888540;29;20041;-80
2021/11/23 11:57:45;;;;;;;1.00;0.60;;;10.10;91.40;;;;;;4888344;29;20041;-80
2021/11/23 12:00:32;;;;;;;1.38;0.70;;;10.10;91.30;;;;;;4904998;29;20401;-80
2021/11/23 12:03:34;;;;;;;0.85;0.70;;;10.10;91.40;;;;;;4884951;29;20044;-80
2021/11/23 12:06:04;;;;;;;2.53;0.98;;;10.10;91.50;;;;;;4898150;29;20048;-80
2021/11/23 12:08:33;;;;;;;1.83;0.80;;;10.00;91.40;;;;;;4884081;29;20052;-81
2021/11/23 12:11:02;;;;;;;0.75;0.65;;;10.00;91.50;;;;;;4883786;29;20045;-81
2021/11/23 12:13:56;;;;;;;2.35;0.70;;;9.90;91.60;;;;;;4899371;29;20077;-87
2021/11/23 12:16:36;;;;;;;0.88;0.80;;;9.90;91.60;;;;;;4876210;29;20495;-81
2021/11/23 12:19:28;;;;;;;1.37;0.70;;;10.00;91.70;;;;;;4878987;29;20196;-80
2021/11/23 12:21:57;;;;;;;1.08;0.80;;;9.90;91.70;;;;;;4877048;29;20120;-79
2021/11/23 12:24:29;;;;;;;1.20;0.90;;;9.90;91.70;;;;;;4876241;29;20411;-81
2021/11/23 12:26:56;;;;;;;2.15;1.20;;;9.80;91.80;;;;;;4876988;29;20049;-80
2021/11/23 12:29:28;;;;;;;2.17;0.90;;;9.80;91.80;;;;;;4876910;29;20039;-81
2021/11/23 12:31:55;;;;;;;2.47;1.13;;;9.80;91.90;;;;;;4876666;29;20092;-80
2021/11/23 12:34:22;;;;;;;1.38;1.00;;;9.70;91.90;;;;;;4878569;29;20041;-80
2021/11/23 12:36:56;;;;;;;0.93;0.80;;;9.70;92.00;;;;;;4877884;29;20049;-79
2021/11/23 12:39:45;;;;;;;1.10;1.00;;;9.60;91.90;;;;;;4863654;29;20411;-81
2021/11/23 12:42:14;;;;;;;1.60;1.00;;;9.60;92.10;;;;;;4851619;29;20058;-80
2021/11/23 12:44:47;;;;;;;1.58;1.00;;;9.60;92.10;;;;;;4832013;29;20073;-79
2021/11/23 12:47:20;;;;;;;2.00;0.95;;;9.60;92.10;;;;;;4857172;29;20541;-80
2021/11/23 12:49:56;;;;;;;1.77;1.15;;;9.60;92.10;;;;;;4858530;29;20623;-81
2021/11/23 12:52:26;;;;;;;2.67;1.15;;;9.60;92.10;;;;;;4859098;29;20073;-81
2021/11/23 12:54:54;;;;;;;1.75;0.98;;;9.60;92.10;;;;;;4859094;29;20033;-80
2021/11/23 12:57:22;;;;;;;1.08;0.82;;;9.60;92.10;;;;;;4858635;29;20045;-79
2021/11/23 12:59:51;;;;;;;1.38;1.17;;;9.60;92.10;;;;;;4858654;29;20049;-80
2021/11/23 13:02:31;;;;;;;2.67;1.00;;;9.70;92.00;;;;;;4858588;29;20053;-81
2021/11/23 13:05:11;;;;;;;1.95;1.20;;;9.60;92.00;;;;;;4858194;29;20101;-82
2021/11/23 13:11:28;;;;;;;2.60;1.48;;;9.60;92.10;;;;;;4876695;29;20059;-82
2021/11/23 13:14:24;;;;;;;1.40;0.90;;;9.60;92.10;;;;;;4815965;29;20050;-79
2021/11/23 13:16:52;;;;;;;0.88;0.80;;;9.70;92.10;;;;;;4805299;29;20047;-78
2021/11/23 13:19:18;;;;;;;0.93;0.70;;;9.80;92.00;;;;;;4806668;29;20059;-78
2021/11/23 13:21:44;;;;;;;0.80;0.70;;;9.80;92.00;;;;;;4804333;29;20047;-78
2021/11/23 13:24:11;;;;;;;1.42;0.70;;;9.80;92.00;;;;;;4803177;29;20043;-79
2021/11/23 13:26:37;;;;;;;0.85;0.60;;;9.80;92.00;;;;;;4807256;29;20635;-78
2021/11/23 13:29:05;;;;;;;0.70;0.57;;;9.90;92.00;;;;;;4810080;29;20039;-79
2021/11/23 13:31:35;;;;;;;0.50;0.50;;;10.00;92.10;;;;;;4771592;29;20062;-79
2021/11/23 13:34:07;;;;;;;1.42;0.60;;;10.00;92.10;;;;;;4767287;29;20039;-77